sensor_id;sensor_type;location;lat;lon;timestamp;temperature;humidity
67586;SHT31;55785;47.946;20.540;2024-01-25T00:02:23;2.97;86.32
67586;SHT31;55785;47.946;20.540;2024-01-25T00:04:48;2.77;86.63
67586;SHT31;55785;47.946;20.540;2024-01-25T00:07:13;2.62;87.37
67586;SHT31;55785;47.946;20.540;2024-01-25T00:09:39;2.51;88.04
67586;SHT31;55785;47.946;20.540;2024-01-25T00:12:05;2.37;88.26
67586;SHT31;55785;47.946;20.540;2024-01-25T00:14:30;2.30;88.62
67586;SHT31;55785;47.946;20.540;2024-01-25T00:16:55;2.28;88.96
67586;SHT31;55785;47.946;20.540;2024-01-25T00:19:21;2.20;89.36
67586;SHT31;55785;47.946;20.540;2024-01-25T00:21:46;3.22;88.88
67586;SHT31;55785;47.946;20.540;2024-01-25T00:24:12;4.04;85.31
67586;SHT31;55785;47.946;20.540;2024-01-25T00:26:37;4.81;82.31
67586;SHT31;55785;47.946;20.540;2024-01-25T00:29:04;5.27;80.37
67586;SHT31;55785;47.946;20.540;2024-01-25T00:31:29;5.51;78.92
67586;SHT31;55785;47.946;20.540;2024-01-25T00:33:54;5.70;78.17
67586;SHT31;55785;47.946;20.540;2024-01-25T00:36:20;5.89;77.16
67586;SHT31;55785;47.946;20.540;2024-01-25T00:38:46;5.96;76.63
67586;SHT31;55785;47.946;20.540;2024-01-25T00:41:15;6.03;76.54
67586;SHT31;55785;47.946;20.540;2024-01-25T00:43:42;6.06;76.19
67586;SHT31;55785;47.946;20.540;2024-01-25T00:46:08;6.07;76.14
67586;SHT31;55785;47.946;20.540;2024-01-25T00:48:33;6.10;75.69
67586;SHT31;55785;47.946;20.540;2024-01-25T00:50:59;6.22;75.19
67586;SHT31;55785;47.946;20.540;2024-01-25T00:53:25;6.30;74.81
67586;SHT31;55785;47.946;20.540;2024-01-25T00:55:50;6.35;74.42
67586;SHT31;55785;47.946;20.540;2024-01-25T00:58:16;6.41;74.22
67586;SHT31;55785;47.946;20.540;2024-01-25T01:00:41;6.31;74.45
67586;SHT31;55785;47.946;20.540;2024-01-25T01:03:07;6.34;74.16
67586;SHT31;55785;47.946;20.540;2024-01-25T01:05:33;6.34;74.46
67586;SHT31;55785;47.946;20.540;2024-01-25T01:07:58;6.44;73.74
67586;SHT31;55785;47.946;20.540;2024-01-25T01:10:24;6.51;73.48
67586;SHT31;55785;47.946;20.540;2024-01-25T01:12:49;6.61;72.92
67586;SHT31;55785;47.946;20.540;2024-01-25T01:15:14;6.71;72.54
67586;SHT31;55785;47.946;20.540;2024-01-25T01:17:40;6.73;72.19
67586;SHT31;55785;47.946;20.540;2024-01-25T01:20:05;6.72;72.26
67586;SHT31;55785;47.946;20.540;2024-01-25T01:22:31;6.67;72.49
67586;SHT31;55785;47.946;20.540;2024-01-25T01:24:56;6.67;72.27
67586;SHT31;55785;47.946;20.540;2024-01-25T01:27:22;6.65;72.37
67586;SHT31;55785;47.946;20.540;2024-01-25T01:29:47;6.62;72.44
67586;SHT31;55785;47.946;20.540;2024-01-25T01:32:12;6.58;72.62
67586;SHT31;55785;47.946;20.540;2024-01-25T01:34:38;6.49;72.84
67586;SHT31;55785;47.946;20.540;2024-01-25T01:37:03;6.31;73.37
67586;SHT31;55785;47.946;20.540;2024-01-25T01:39:28;6.30;73.34
67586;SHT31;55785;47.946;20.540;2024-01-25T01:41:54;6.24;73.40
67586;SHT31;55785;47.946;20.540;2024-01-25T01:44:19;6.22;73.28
67586;SHT31;55785;47.946;20.540;2024-01-25T01:46:44;6.27;72.81
67586;SHT31;55785;47.946;20.540;2024-01-25T01:49:14;6.32;72.52
67586;SHT31;55785;47.946;20.540;2024-01-25T01:51:42;6.46;71.88
67586;SHT31;55785;47.946;20.540;2024-01-25T01:54:08;6.58;71.26
67586;SHT31;55785;47.946;20.540;2024-01-25T01:56:34;6.65;71.11
67586;SHT31;55785;47.946;20.540;2024-01-25T01:59:04;6.62;70.97
67586;SHT31;55785;47.946;20.540;2024-01-25T02:01:30;6.52;70.99
67586;SHT31;55785;47.946;20.540;2024-01-25T02:03:56;6.55;71.05
67586;SHT31;55785;47.946;20.540;2024-01-25T02:06:23;6.62;70.53
67586;SHT31;55785;47.946;20.540;2024-01-25T02:08:48;6.64;70.33
67586;SHT31;55785;47.946;20.540;2024-01-25T02:11:14;6.69;70.20
67586;SHT31;55785;47.946;20.540;2024-01-25T02:13:39;6.78;69.53
67586;SHT31;55785;47.946;20.540;2024-01-25T02:16:07;6.72;69.85
67586;SHT31;55785;47.946;20.540;2024-01-25T02:18:33;6.73;69.77
67586;SHT31;55785;47.946;20.540;2024-01-25T02:20:58;6.83;69.25
67586;SHT31;55785;47.946;20.540;2024-01-25T02:23:24;6.88;69.03
67586;SHT31;55785;47.946;20.540;2024-01-25T02:25:49;6.93;69.00
67586;SHT31;55785;47.946;20.540;2024-01-25T02:28:15;6.85;69.37
67586;SHT31;55785;47.946;20.540;2024-01-25T02:30:40;6.83;69.23
67586;SHT31;55785;47.946;20.540;2024-01-25T02:33:05;6.89;68.94
67586;SHT31;55785;47.946;20.540;2024-01-25T02:35:30;6.85;69.21
67586;SHT31;55785;47.946;20.540;2024-01-25T02:37:56;6.85;68.96
67586;SHT31;55785;47.946;20.540;2024-01-25T02:40:21;6.96;68.64
67586;SHT31;55785;47.946;20.540;2024-01-25T02:42:46;6.92;68.85
67586;SHT31;55785;47.946;20.540;2024-01-25T02:45:12;6.93;69.05
67586;SHT31;55785;47.946;20.540;2024-01-25T02:47:37;6.83;69.13
67586;SHT31;55785;47.946;20.540;2024-01-25T02:50:03;6.79;69.29
67586;SHT31;55785;47.946;20.540;2024-01-25T02:52:28;6.80;69.33
67586;SHT31;55785;47.946;20.540;2024-01-25T02:54:53;6.67;69.75
67586;SHT31;55785;47.946;20.540;2024-01-25T02:57:19;6.62;70.05
67586;SHT31;55785;47.946;20.540;2024-01-25T02:59:44;6.64;69.92
67586;SHT31;55785;47.946;20.540;2024-01-25T03:02:09;6.64;70.10
67586;SHT31;55785;47.946;20.540;2024-01-25T03:04:35;6.59;70.33
67586;SHT31;55785;47.946;20.540;2024-01-25T03:07:00;6.53;70.51
67586;SHT31;55785;47.946;20.540;2024-01-25T03:09:25;6.69;69.88
67586;SHT31;55785;47.946;20.540;2024-01-25T03:11:51;6.72;70.08
67586;SHT31;55785;47.946;20.540;2024-01-25T03:14:16;6.71;69.90
67586;SHT31;55785;47.946;20.540;2024-01-25T03:16:41;6.79;69.79
67586;SHT31;55785;47.946;20.540;2024-01-25T03:19:07;6.89;69.18
67586;SHT31;55785;47.946;20.540;2024-01-25T03:21:32;6.83;69.86
67586;SHT31;55785;47.946;20.540;2024-01-25T03:23:57;6.92;69.17
67586;SHT31;55785;47.946;20.540;2024-01-25T03:26:23;6.92;69.33
67586;SHT31;55785;47.946;20.540;2024-01-25T03:28:48;6.85;69.50
67586;SHT31;55785;47.946;20.540;2024-01-25T03:31:13;6.73;70.15
67586;SHT31;55785;47.946;20.540;2024-01-25T03:33:39;6.73;69.96
67586;SHT31;55785;47.946;20.540;2024-01-25T03:36:05;6.67;70.38
67586;SHT31;55785;47.946;20.540;2024-01-25T03:38:31;6.59;70.51
67586;SHT31;55785;47.946;20.540;2024-01-25T03:40:56;6.55;70.86
67586;SHT31;55785;47.946;20.540;2024-01-25T03:43:22;6.52;70.87
67586;SHT31;55785;47.946;20.540;2024-01-25T03:45:47;6.52;70.98
67586;SHT31;55785;47.946;20.540;2024-01-25T03:48:13;6.46;70.94
67586;SHT31;55785;47.946;20.540;2024-01-25T03:50:38;6.49;70.84
67586;SHT31;55785;47.946;20.540;2024-01-25T03:53:03;6.49;70.99
67586;SHT31;55785;47.946;20.540;2024-01-25T03:55:29;6.53;71.02
67586;SHT31;55785;47.946;20.540;2024-01-25T03:57:54;6.49;71.09
67586;SHT31;55785;47.946;20.540;2024-01-25T04:00:19;6.40;71.45
67586;SHT31;55785;47.946;20.540;2024-01-25T04:02:45;6.28;71.79
67586;SHT31;55785;47.946;20.540;2024-01-25T04:05:10;6.21;71.87
67586;SHT31;55785;47.946;20.540;2024-01-25T04:07:35;6.31;71.68
67586;SHT31;55785;47.946;20.540;2024-01-25T04:10:01;6.38;71.37
67586;SHT31;55785;47.946;20.540;2024-01-25T04:12:26;6.27;71.61
67586;SHT31;55785;47.946;20.540;2024-01-25T04:14:51;6.18;72.05
67586;SHT31;55785;47.946;20.540;2024-01-25T04:17:17;6.07;72.47
67586;SHT31;55785;47.946;20.540;2024-01-25T04:19:42;5.99;72.53
67586;SHT31;55785;47.946;20.540;2024-01-25T04:22:07;5.99;72.70
67586;SHT31;55785;47.946;20.540;2024-01-25T04:24:33;5.94;73.02
67586;SHT31;55785;47.946;20.540;2024-01-25T04:26:58;6.00;72.81
67586;SHT31;55785;47.946;20.540;2024-01-25T04:29:23;5.92;73.10
67586;SHT31;55785;47.946;20.540;2024-01-25T04:31:49;5.90;73.06
67586;SHT31;55785;47.946;20.540;2024-01-25T04:34:15;5.97;72.90
67586;SHT31;55785;47.946;20.540;2024-01-25T04:36:40;6.01;72.85
67586;SHT31;55785;47.946;20.540;2024-01-25T04:39:05;5.94;72.87
67586;SHT31;55785;47.946;20.540;2024-01-25T04:41:31;5.93;72.93
67586;SHT31;55785;47.946;20.540;2024-01-25T04:43:56;5.93;72.85
67586;SHT31;55785;47.946;20.540;2024-01-25T04:46:21;5.92;72.90
67586;SHT31;55785;47.946;20.540;2024-01-25T04:48:47;5.99;72.64
67586;SHT31;55785;47.946;20.540;2024-01-25T04:51:16;6.04;72.71
67586;SHT31;55785;47.946;20.540;2024-01-25T04:53:42;5.90;73.03
67586;SHT31;55785;47.946;20.540;2024-01-25T04:56:07;5.92;72.83
67586;SHT31;55785;47.946;20.540;2024-01-25T04:58:32;5.80;72.90
67586;SHT31;55785;47.946;20.540;2024-01-25T05:00:58;5.80;73.08
67586;SHT31;55785;47.946;20.540;2024-01-25T05:03:23;5.85;72.84
67586;SHT31;55785;47.946;20.540;2024-01-25T05:05:48;5.86;72.52
67586;SHT31;55785;47.946;20.540;2024-01-25T05:08:14;5.86;72.52
67586;SHT31;55785;47.946;20.540;2024-01-25T05:10:39;5.82;72.56
67586;SHT31;55785;47.946;20.540;2024-01-25T05:13:04;5.62;72.98
67586;SHT31;55785;47.946;20.540;2024-01-25T05:15:30;5.59;73.09
67586;SHT31;55785;47.946;20.540;2024-01-25T05:17:55;5.59;73.03
67586;SHT31;55785;47.946;20.540;2024-01-25T05:20:20;5.72;72.63
67586;SHT31;55785;47.946;20.540;2024-01-25T05:22:46;5.83;72.07
67586;SHT31;55785;47.946;20.540;2024-01-25T05:25:11;5.77;72.20
67586;SHT31;55785;47.946;20.540;2024-01-25T05:27:36;5.73;72.56
67586;SHT31;55785;47.946;20.540;2024-01-25T05:30:02;5.53;72.97
67586;SHT31;55785;47.946;20.540;2024-01-25T05:32:27;5.36;73.59
67586;SHT31;55785;47.946;20.540;2024-01-25T05:34:53;5.28;74.01
67586;SHT31;55785;47.946;20.540;2024-01-25T05:37:18;5.46;72.95
67586;SHT31;55785;47.946;20.540;2024-01-25T05:39:43;5.45;73.26
67586;SHT31;55785;47.946;20.540;2024-01-25T05:42:08;5.30;73.54
67586;SHT31;55785;47.946;20.540;2024-01-25T05:44:34;5.48;72.61
67586;SHT31;55785;47.946;20.540;2024-01-25T05:46:59;5.51;73.11
67586;SHT31;55785;47.946;20.540;2024-01-25T05:49:24;5.44;73.14
67586;SHT31;55785;47.946;20.540;2024-01-25T05:51:50;5.35;73.26
67586;SHT31;55785;47.946;20.540;2024-01-25T05:54:15;5.28;73.51
67586;SHT31;55785;47.946;20.540;2024-01-25T05:56:40;5.21;74.40
67586;SHT31;55785;47.946;20.540;2024-01-25T05:59:06;5.05;74.97
67586;SHT31;55785;47.946;20.540;2024-01-25T06:01:31;4.79;76.05
67586;SHT31;55785;47.946;20.540;2024-01-25T06:03:56;4.55;76.56
67586;SHT31;55785;47.946;20.540;2024-01-25T06:06:22;4.46;77.51
67586;SHT31;55785;47.946;20.540;2024-01-25T06:08:47;4.31;77.66
67586;SHT31;55785;47.946;20.540;2024-01-25T06:11:13;4.26;77.65
67586;SHT31;55785;47.946;20.540;2024-01-25T06:13:38;4.38;76.84
67586;SHT31;55785;47.946;20.540;2024-01-25T06:16:03;5.18;73.49
67586;SHT31;55785;47.946;20.540;2024-01-25T06:18:29;5.45;72.38
67586;SHT31;55785;47.946;20.540;2024-01-25T06:20:54;5.58;72.19
67586;SHT31;55785;47.946;20.540;2024-01-25T06:23:19;5.70;71.70
67586;SHT31;55785;47.946;20.540;2024-01-25T06:25:45;5.69;71.68
67586;SHT31;55785;47.946;20.540;2024-01-25T06:28:10;5.70;71.75
67586;SHT31;55785;47.946;20.540;2024-01-25T06:30:35;5.73;71.78
67586;SHT31;55785;47.946;20.540;2024-01-25T06:33:01;5.62;72.06
67586;SHT31;55785;47.946;20.540;2024-01-25T06:35:26;5.32;73.38
67586;SHT31;55785;47.946;20.540;2024-01-25T06:37:51;5.25;73.56
67586;SHT31;55785;47.946;20.540;2024-01-25T06:40:17;5.24;73.68
67586;SHT31;55785;47.946;20.540;2024-01-25T06:42:42;4.80;75.89
67586;SHT31;55785;47.946;20.540;2024-01-25T06:45:08;4.35;78.17
67586;SHT31;55785;47.946;20.540;2024-01-25T06:47:33;4.11;79.25
67586;SHT31;55785;47.946;20.540;2024-01-25T06:49:58;4.18;79.15
67586;SHT31;55785;47.946;20.540;2024-01-25T06:52:24;3.99;79.92
67586;SHT31;55785;47.946;20.540;2024-01-25T06:54:49;3.94;79.99
67586;SHT31;55785;47.946;20.540;2024-01-25T06:57:14;3.97;79.91
67586;SHT31;55785;47.946;20.540;2024-01-25T06:59:40;4.14;79.21
67586;SHT31;55785;47.946;20.540;2024-01-25T07:02:05;4.29;78.41
67586;SHT31;55785;47.946;20.540;2024-01-25T07:04:30;4.48;77.48
67586;SHT31;55785;47.946;20.540;2024-01-25T07:06:56;4.62;76.74
67586;SHT31;55785;47.946;20.540;2024-01-25T07:09:21;4.63;76.99
67586;SHT31;55785;47.946;20.540;2024-01-25T07:11:46;4.62;77.30
67586;SHT31;55785;47.946;20.540;2024-01-25T07:14:12;4.53;77.39
67586;SHT31;55785;47.946;20.540;2024-01-25T07:16:37;4.39;77.61
67586;SHT31;55785;47.946;20.540;2024-01-25T07:19:03;4.18;78.34
67586;SHT31;55785;47.946;20.540;2024-01-25T07:21:28;3.93;79.29
67586;SHT31;55785;47.946;20.540;2024-01-25T07:23:54;3.81;79.27
67586;SHT31;55785;47.946;20.540;2024-01-25T07:26:19;3.42;79.96
67586;SHT31;55785;47.946;20.540;2024-01-25T07:28:45;3.32;81.28
67586;SHT31;55785;47.946;20.540;2024-01-25T07:31:10;3.30;81.57
67586;SHT31;55785;47.946;20.540;2024-01-25T07:33:35;3.20;81.66
67586;SHT31;55785;47.946;20.540;2024-01-25T07:36:01;3.19;81.70
67586;SHT31;55785;47.946;20.540;2024-01-25T07:38:26;3.16;81.75
67586;SHT31;55785;47.946;20.540;2024-01-25T07:40:51;2.91;82.12
67586;SHT31;55785;47.946;20.540;2024-01-25T07:43:17;2.80;83.15
67586;SHT31;55785;47.946;20.540;2024-01-25T07:45:42;2.78;83.27
67586;SHT31;55785;47.946;20.540;2024-01-25T07:48:07;2.76;83.44
67586;SHT31;55785;47.946;20.540;2024-01-25T07:50:32;2.73;83.55
67586;SHT31;55785;47.946;20.540;2024-01-25T07:52:58;2.65;84.24
67586;SHT31;55785;47.946;20.540;2024-01-25T07:55:23;2.70;84.21
67586;SHT31;55785;47.946;20.540;2024-01-25T07:57:48;2.64;84.68
67586;SHT31;55785;47.946;20.540;2024-01-25T08:00:14;2.60;84.75
67586;SHT31;55785;47.946;20.540;2024-01-25T08:02:39;2.61;84.74
67586;SHT31;55785;47.946;20.540;2024-01-25T08:05:05;2.77;84.75
67586;SHT31;55785;47.946;20.540;2024-01-25T08:07:30;2.78;84.64
67586;SHT31;55785;47.946;20.540;2024-01-25T08:09:56;2.76;84.60
67586;SHT31;55785;47.946;20.540;2024-01-25T08:12:21;2.58;84.48
67586;SHT31;55785;47.946;20.540;2024-01-25T08:14:46;2.44;85.08
67586;SHT31;55785;47.946;20.540;2024-01-25T08:17:12;2.49;85.28
67586;SHT31;55785;47.946;20.540;2024-01-25T08:19:37;2.56;85.42
67586;SHT31;55785;47.946;20.540;2024-01-25T08:22:02;2.62;85.05
67586;SHT31;55785;47.946;20.540;2024-01-25T08:24:28;2.61;84.48
67586;SHT31;55785;47.946;20.540;2024-01-25T08:26:53;2.64;85.00
67586;SHT31;55785;47.946;20.540;2024-01-25T08:29:18;2.71;84.86
67586;SHT31;55785;47.946;20.540;2024-01-25T08:31:44;2.74;84.95
67586;SHT31;55785;47.946;20.540;2024-01-25T08:34:09;2.76;84.55
67586;SHT31;55785;47.946;20.540;2024-01-25T08:36:34;2.91;84.18
67586;SHT31;55785;47.946;20.540;2024-01-25T08:39:00;3.36;82.55
67586;SHT31;55785;47.946;20.540;2024-01-25T08:41:25;4.07;80.06
67586;SHT31;55785;47.946;20.540;2024-01-25T08:43:50;4.74;77.44
67586;SHT31;55785;47.946;20.540;2024-01-25T08:46:16;5.48;74.33
67586;SHT31;55785;47.946;20.540;2024-01-25T08:48:41;6.00;72.92
67586;SHT31;55785;47.946;20.540;2024-01-25T08:51:08;6.35;71.15
67586;SHT31;55785;47.946;20.540;2024-01-25T08:53:33;6.62;70.38
67586;SHT31;55785;47.946;20.540;2024-01-25T08:55:59;6.80;70.34
67586;SHT31;55785;47.946;20.540;2024-01-25T08:58:25;7.06;67.58
67586;SHT31;55785;47.946;20.540;2024-01-25T09:00:50;7.14;68.18
67586;SHT31;55785;47.946;20.540;2024-01-25T09:03:15;7.31;67.55
67586;SHT31;55785;47.946;20.540;2024-01-25T09:05:41;7.38;67.56
67586;SHT31;55785;47.946;20.540;2024-01-25T09:08:07;7.50;65.86
67586;SHT31;55785;47.946;20.540;2024-01-25T09:10:32;7.62;66.45
67586;SHT31;55785;47.946;20.540;2024-01-25T09:12:58;7.89;67.00
67586;SHT31;55785;47.946;20.540;2024-01-25T09:15:23;8.06;66.17
67586;SHT31;55785;47.946;20.540;2024-01-25T09:17:48;8.14;65.48
67586;SHT31;55785;47.946;20.540;2024-01-25T09:20:14;8.19;65.62
67586;SHT31;55785;47.946;20.540;2024-01-25T09:22:39;8.32;65.85
67586;SHT31;55785;47.946;20.540;2024-01-25T09:25:05;8.48;65.39
67586;SHT31;55785;47.946;20.540;2024-01-25T09:27:30;8.57;65.56
67586;SHT31;55785;47.946;20.540;2024-01-25T09:29:55;8.53;64.70
67586;SHT31;55785;47.946;20.540;2024-01-25T09:32:21;8.55;65.11
67586;SHT31;55785;47.946;20.540;2024-01-25T09:34:46;8.54;64.71
67586;SHT31;55785;47.946;20.540;2024-01-25T09:37:11;8.51;64.68
67586;SHT31;55785;47.946;20.540;2024-01-25T09:39:37;8.51;65.18
67586;SHT31;55785;47.946;20.540;2024-01-25T09:42:05;8.57;64.79
67586;SHT31;55785;47.946;20.540;2024-01-25T09:44:31;8.58;64.61
67586;SHT31;55785;47.946;20.540;2024-01-25T09:46:56;8.69;65.10
67586;SHT31;55785;47.946;20.540;2024-01-25T09:49:22;8.78;64.70
67586;SHT31;55785;47.946;20.540;2024-01-25T09:51:50;8.96;63.65
67586;SHT31;55785;47.946;20.540;2024-01-25T09:54:16;8.93;63.14
67586;SHT31;55785;47.946;20.540;2024-01-25T09:56:42;8.95;63.68
67586;SHT31;55785;47.946;20.540;2024-01-25T09:59:08;9.02;63.64
67586;SHT31;55785;47.946;20.540;2024-01-25T10:01:33;9.09;63.38
67586;SHT31;55785;47.946;20.540;2024-01-25T10:03:58;9.19;63.53
67586;SHT31;55785;47.946;20.540;2024-01-25T10:06:24;9.19;63.22
67586;SHT31;55785;47.946;20.540;2024-01-25T10:08:49;9.33;62.48
67586;SHT31;55785;47.946;20.540;2024-01-25T10:11:15;9.47;61.66
67586;SHT31;55785;47.946;20.540;2024-01-25T10:16:07;9.69;61.31
67586;SHT31;55785;47.946;20.540;2024-01-25T10:18:32;9.80;61.44
67586;SHT31;55785;47.946;20.540;2024-01-25T10:20:57;9.73;60.41
67586;SHT31;55785;47.946;20.540;2024-01-25T10:23:23;9.85;61.68
67586;SHT31;55785;47.946;20.540;2024-01-25T10:25:48;9.85;60.99
67586;SHT31;55785;47.946;20.540;2024-01-25T10:28:13;9.73;60.13
67586;SHT31;55785;47.946;20.540;2024-01-25T10:30:39;9.63;60.38
67586;SHT31;55785;47.946;20.540;2024-01-25T10:33:04;9.64;60.44
67586;SHT31;55785;47.946;20.540;2024-01-25T10:35:31;9.60;60.24
67586;SHT31;55785;47.946;20.540;2024-01-25T10:37:56;9.64;60.15
67586;SHT31;55785;47.946;20.540;2024-01-25T10:40:22;9.61;59.79
67586;SHT31;55785;47.946;20.540;2024-01-25T10:42:48;9.75;61.22
67586;SHT31;55785;47.946;20.540;2024-01-25T10:45:14;9.90;60.30
67586;SHT31;55785;47.946;20.540;2024-01-25T10:47:40;10.06;60.40
67586;SHT31;55785;47.946;20.540;2024-01-25T10:50:06;10.13;58.07
67586;SHT31;55785;47.946;20.540;2024-01-25T10:52:32;10.23;56.55
67586;SHT31;55785;47.946;20.540;2024-01-25T10:54:58;10.13;55.90
67586;SHT31;55785;47.946;20.540;2024-01-25T10:57:23;10.15;55.02
67586;SHT31;55785;47.946;20.540;2024-01-25T10:59:49;10.16;55.53
67586;SHT31;55785;47.946;20.540;2024-01-25T11:02:14;9.98;54.55
67586;SHT31;55785;47.946;20.540;2024-01-25T11:04:53;10.11;56.07
67586;SHT31;55785;47.946;20.540;2024-01-25T11:07:18;10.29;54.92
67586;SHT31;55785;47.946;20.540;2024-01-25T11:09:45;10.33;52.52
67586;SHT31;55785;47.946;20.540;2024-01-25T11:12:12;10.31;51.80
67586;SHT31;55785;47.946;20.540;2024-01-25T11:14:37;10.25;51.64
67586;SHT31;55785;47.946;20.540;2024-01-25T11:17:15;10.15;51.87
67586;SHT31;55785;47.946;20.540;2024-01-25T11:19:40;10.15;52.05
67586;SHT31;55785;47.946;20.540;2024-01-25T11:22:06;10.22;52.35
67586;SHT31;55785;47.946;20.540;2024-01-25T11:24:37;10.57;50.52
67586;SHT31;55785;47.946;20.540;2024-01-25T11:27:04;11.01;50.95
67586;SHT31;55785;47.946;20.540;2024-01-25T11:29:30;11.54;49.53
67586;SHT31;55785;47.946;20.540;2024-01-25T11:31:55;11.80;47.53
67586;SHT31;55785;47.946;20.540;2024-01-25T11:34:22;11.73;47.64
67586;SHT31;55785;47.946;20.540;2024-01-25T11:36:47;11.93;47.18
67586;SHT31;55785;47.946;20.540;2024-01-25T11:39:15;12.35;47.77
67586;SHT31;55785;47.946;20.540;2024-01-25T11:41:43;12.24;46.08
67586;SHT31;55785;47.946;20.540;2024-01-25T11:44:12;12.20;45.96
67586;SHT31;55785;47.946;20.540;2024-01-25T11:46:38;11.97;47.65
67586;SHT31;55785;47.946;20.540;2024-01-25T11:49:03;11.22;49.43
67586;SHT31;55785;47.946;20.540;2024-01-25T11:51:29;11.36;47.70
67586;SHT31;55785;47.946;20.540;2024-01-25T11:53:54;11.52;48.36
67586;SHT31;55785;47.946;20.540;2024-01-25T11:56:22;12.20;48.53
67586;SHT31;55785;47.946;20.540;2024-01-25T11:58:48;11.90;46.02
67586;SHT31;55785;47.946;20.540;2024-01-25T12:01:15;11.98;46.27
67586;SHT31;55785;47.946;20.540;2024-01-25T12:03:41;11.76;47.01
67586;SHT31;55785;47.946;20.540;2024-01-25T12:06:07;11.54;46.18
67586;SHT31;55785;47.946;20.540;2024-01-25T12:08:32;11.58;47.01
67586;SHT31;55785;47.946;20.540;2024-01-25T12:11:09;11.65;47.14
67586;SHT31;55785;47.946;20.540;2024-01-25T12:13:35;11.69;46.98
67586;SHT31;55785;47.946;20.540;2024-01-25T12:16:02;11.56;47.02
67586;SHT31;55785;47.946;20.540;2024-01-25T12:18:28;11.65;47.33
67586;SHT31;55785;47.946;20.540;2024-01-25T12:20:54;11.43;47.07
67586;SHT31;55785;47.946;20.540;2024-01-25T12:23:20;11.35;47.72
67586;SHT31;55785;47.946;20.540;2024-01-25T12:25:45;11.14;46.99
67586;SHT31;55785;47.946;20.540;2024-01-25T12:28:10;10.93;47.60
67586;SHT31;55785;47.946;20.540;2024-01-25T12:30:36;11.04;47.72
67586;SHT31;55785;47.946;20.540;2024-01-25T12:33:01;10.84;48.62
67586;SHT31;55785;47.946;20.540;2024-01-25T12:35:26;10.97;48.81
67586;SHT31;55785;47.946;20.540;2024-01-25T12:37:52;10.74;47.94
67586;SHT31;55785;47.946;20.540;2024-01-25T12:40:17;10.28;49.68
67586;SHT31;55785;47.946;20.540;2024-01-25T12:42:42;10.33;50.37
67586;SHT31;55785;47.946;20.540;2024-01-25T12:45:08;10.29;51.05
67586;SHT31;55785;47.946;20.540;2024-01-25T12:47:33;10.21;50.36
67586;SHT31;55785;47.946;20.540;2024-01-25T12:49:59;10.02;51.46
67586;SHT31;55785;47.946;20.540;2024-01-25T12:52:24;9.85;49.91
67586;SHT31;55785;47.946;20.540;2024-01-25T12:54:49;9.82;50.58
67586;SHT31;55785;47.946;20.540;2024-01-25T12:57:15;9.71;51.16
67586;SHT31;55785;47.946;20.540;2024-01-25T12:59:40;9.73;51.67
67586;SHT31;55785;47.946;20.540;2024-01-25T13:02:06;9.80;50.92
67586;SHT31;55785;47.946;20.540;2024-01-25T13:04:32;9.78;51.69
67586;SHT31;55785;47.946;20.540;2024-01-25T13:06:58;9.84;50.42
67586;SHT31;55785;47.946;20.540;2024-01-25T13:09:23;9.84;51.19
67586;SHT31;55785;47.946;20.540;2024-01-25T13:11:49;9.81;50.74
67586;SHT31;55785;47.946;20.540;2024-01-25T13:14:16;9.81;52.65
67586;SHT31;55785;47.946;20.540;2024-01-25T13:16:41;9.80;51.07
67586;SHT31;55785;47.946;20.540;2024-01-25T13:19:07;9.82;50.77
67586;SHT31;55785;47.946;20.540;2024-01-25T13:21:32;9.78;51.93
67586;SHT31;55785;47.946;20.540;2024-01-25T13:23:59;9.70;51.22
67586;SHT31;55785;47.946;20.540;2024-01-25T13:26:24;9.64;51.33
67586;SHT31;55785;47.946;20.540;2024-01-25T13:28:50;9.65;51.27
67586;SHT31;55785;47.946;20.540;2024-01-25T13:31:15;9.63;51.16
67586;SHT31;55785;47.946;20.540;2024-01-25T13:33:40;9.58;51.98
67586;SHT31;55785;47.946;20.540;2024-01-25T13:36:06;9.64;51.78
67586;SHT31;55785;47.946;20.540;2024-01-25T13:38:32;9.63;51.49
67586;SHT31;55785;47.946;20.540;2024-01-25T13:40:57;9.54;51.78
67586;SHT31;55785;47.946;20.540;2024-01-25T13:43:22;9.51;51.37
67586;SHT31;55785;47.946;20.540;2024-01-25T13:45:47;9.43;52.42
67586;SHT31;55785;47.946;20.540;2024-01-25T13:48:13;9.40;51.38
67586;SHT31;55785;47.946;20.540;2024-01-25T13:50:38;9.50;52.39
67586;SHT31;55785;47.946;20.540;2024-01-25T13:53:03;9.43;52.10
67586;SHT31;55785;47.946;20.540;2024-01-25T13:55:30;9.43;52.63
67586;SHT31;55785;47.946;20.540;2024-01-25T13:57:55;9.53;52.74
67586;SHT31;55785;47.946;20.540;2024-01-25T14:00:21;9.47;52.22
67586;SHT31;55785;47.946;20.540;2024-01-25T14:02:46;9.48;52.30
67586;SHT31;55785;47.946;20.540;2024-01-25T14:05:12;9.40;51.48
67586;SHT31;55785;47.946;20.540;2024-01-25T14:07:37;9.34;52.56
67586;SHT31;55785;47.946;20.540;2024-01-25T14:10:03;9.19;53.00
67586;SHT31;55785;47.946;20.540;2024-01-25T14:12:28;9.06;53.61
67586;SHT31;55785;47.946;20.540;2024-01-25T14:14:53;8.89;53.21
67586;SHT31;55785;47.946;20.540;2024-01-25T14:17:19;8.75;53.97
67586;SHT31;55785;47.946;20.540;2024-01-25T14:19:44;8.65;54.20
67586;SHT31;55785;47.946;20.540;2024-01-25T14:22:09;8.48;54.41
67586;SHT31;55785;47.946;20.540;2024-01-25T14:24:35;8.34;54.76
67586;SHT31;55785;47.946;20.540;2024-01-25T14:27:00;8.38;54.18
67586;SHT31;55785;47.946;20.540;2024-01-25T14:29:25;8.38;54.68
67586;SHT31;55785;47.946;20.540;2024-01-25T14:31:51;8.37;54.02
67586;SHT31;55785;47.946;20.540;2024-01-25T14:34:16;8.43;53.82
67586;SHT31;55785;47.946;20.540;2024-01-25T14:36:41;8.43;53.94
67586;SHT31;55785;47.946;20.540;2024-01-25T14:39:07;8.36;54.65
67586;SHT31;55785;47.946;20.540;2024-01-25T14:41:32;8.29;54.97
67586;SHT31;55785;47.946;20.540;2024-01-25T14:43:57;8.27;55.16
67586;SHT31;55785;47.946;20.540;2024-01-25T14:46:23;8.30;54.30
67586;SHT31;55785;47.946;20.540;2024-01-25T14:48:48;8.26;54.57
67586;SHT31;55785;47.946;20.540;2024-01-25T14:51:13;8.29;54.40
67586;SHT31;55785;47.946;20.540;2024-01-25T14:53:39;8.23;54.71
67586;SHT31;55785;47.946;20.540;2024-01-25T14:56:04;8.10;55.47
67586;SHT31;55785;47.946;20.540;2024-01-25T14:58:30;8.09;55.02
67586;SHT31;55785;47.946;20.540;2024-01-25T15:00:55;8.10;54.44
67586;SHT31;55785;47.946;20.540;2024-01-25T15:03:20;8.09;54.57
67586;SHT31;55785;47.946;20.540;2024-01-25T15:05:46;8.09;55.33
67586;SHT31;55785;47.946;20.540;2024-01-25T15:08:11;8.02;54.78
67586;SHT31;55785;47.946;20.540;2024-01-25T15:10:37;7.96;55.76
67586;SHT31;55785;47.946;20.540;2024-01-25T15:13:02;7.85;56.01
67586;SHT31;55785;47.946;20.540;2024-01-25T15:15:28;7.74;56.13
67586;SHT31;55785;47.946;20.540;2024-01-25T15:17:59;7.75;56.24
67586;SHT31;55785;47.946;20.540;2024-01-25T15:20:25;7.61;56.29
67586;SHT31;55785;47.946;20.540;2024-01-25T15:22:50;7.40;57.33